sensor_id;sensor_type;location;lat;lon;timestamp;P1;durP1;ratioP1;P2;durP2;ratioP2
21613;SDS011;10969;49.550;25.564;2022-08-30T00:00:58;9.10;;;5.57;;
21613;SDS011;10969;49.550;25.564;2022-08-30T00:03:27;5.47;;;3.92;;
21613;SDS011;10969;49.550;25.564;2022-08-30T00:05:54;6.55;;;4.18;;
21613;SDS011;10969;49.550;25.564;2022-08-30T00:08:20;7.05;;;3.85;;
21613;SDS011;10969;49.550;25.564;2022-08-30T00:10:46;6.85;;;3.83;;
21613;SDS011;10969;49.550;25.564;2022-08-30T00:13:15;11.00;;;4.80;;
21613;SDS011;10969;49.550;25.564;2022-08-30T00:15:41;7.70;;;4.38;;
21613;SDS011;10969;49.550;25.564;2022-08-30T00:18:07;8.57;;;4.57;;
21613;SDS011;10969;49.550;25.564;2022-08-30T00:20:34;8.20;;;2.85;;
21613;SDS011;10969;49.550;25.564;2022-08-30T00:23:00;12.32;;;5.13;;
21613;SDS011;10969;49.550;25.564;2022-08-30T00:25:26;11.10;;;4.63;;
21613;SDS011;10969;49.550;25.564;2022-08-30T00:27:52;6.82;;;4.35;;
21613;SDS011;10969;49.550;25.564;2022-08-30T00:30:19;4.78;;;3.47;;
21613;SDS011;10969;49.550;25.564;2022-08-30T00:32:45;6.45;;;3.95;;
21613;SDS011;10969;49.550;25.564;2022-08-30T00:35:12;7.07;;;3.97;;
21613;SDS011;10969;49.550;25.564;2022-08-30T00:37:39;9.07;;;5.18;;
21613;SDS011;10969;49.550;25.564;2022-08-30T00:40:06;8.10;;;4.72;;
21613;SDS011;10969;49.550;25.564;2022-08-30T00:42:33;6.05;;;4.38;;
21613;SDS011;10969;49.550;25.564;2022-08-30T00:44:59;7.45;;;4.18;;
21613;SDS011;10969;49.550;25.564;2022-08-30T00:47:25;9.00;;;4.57;;
21613;SDS011;10969;49.550;25.564;2022-08-30T00:49:52;7.45;;;4.20;;
21613;SDS011;10969;49.550;25.564;2022-08-30T00:52:19;13.68;;;4.60;;
21613;SDS011;10969;49.550;25.564;2022-08-30T00:54:46;7.22;;;4.93;;
21613;SDS011;10969;49.550;25.564;2022-08-30T00:57:12;10.02;;;4.90;;
21613;SDS011;10969;49.550;25.564;2022-08-30T00:59:39;10.68;;;4.93;;
21613;SDS011;10969;49.550;25.564;2022-08-30T01:02:06;7.13;;;4.22;;
21613;SDS011;10969;49.550;25.564;2022-08-30T01:04:32;9.77;;;4.97;;
21613;SDS011;10969;49.550;25.564;2022-08-30T01:06:58;8.00;;;3.65;;
21613;SDS011;10969;49.550;25.564;2022-08-30T01:09:24;8.80;;;4.50;;
21613;SDS011;10969;49.550;25.564;2022-08-30T01:11:51;10.20;;;5.20;;
21613;SDS011;10969;49.550;25.564;2022-08-30T01:14:17;11.25;;;5.22;;
21613;SDS011;10969;49.550;25.564;2022-08-30T01:16:46;6.70;;;4.43;;
21613;SDS011;10969;49.550;25.564;2022-08-30T01:19:33;14.88;;;5.50;;
21613;SDS011;10969;49.550;25.564;2022-08-30T01:24:39;15.05;;;4.82;;
21613;SDS011;10969;49.550;25.564;2022-08-30T01:27:05;7.15;;;4.88;;
21613;SDS011;10969;49.550;25.564;2022-08-30T01:29:31;8.93;;;4.53;;
21613;SDS011;10969;49.550;25.564;2022-08-30T01:31:57;8.68;;;5.38;;
21613;SDS011;10969;49.550;25.564;2022-08-30T01:34:24;11.57;;;5.25;;
21613;SDS011;10969;49.550;25.564;2022-08-30T01:36:50;11.60;;;5.57;;
21613;SDS011;10969;49.550;25.564;2022-08-30T01:39:16;8.38;;;5.07;;
21613;SDS011;10969;49.550;25.564;2022-08-30T01:41:43;9.02;;;5.05;;
21613;SDS011;10969;49.550;25.564;2022-08-30T01:44:10;9.10;;;5.43;;
21613;SDS011;10969;49.550;25.564;2022-08-30T01:46:41;10.25;;;4.07;;
21613;SDS011;10969;49.550;25.564;2022-08-30T01:51:33;14.20;;;4.40;;
21613;SDS011;10969;49.550;25.564;2022-08-30T01:53:59;8.73;;;4.53;;
21613;SDS011;10969;49.550;25.564;2022-08-30T01:56:26;6.50;;;3.47;;
21613;SDS011;10969;49.550;25.564;2022-08-30T01:58:53;8.02;;;4.70;;
21613;SDS011;10969;49.550;25.564;2022-08-30T02:01:21;10.30;;;5.00;;
21613;SDS011;10969;49.550;25.564;2022-08-30T02:03:47;10.70;;;4.95;;
21613;SDS011;10969;49.550;25.564;2022-08-30T02:06:15;5.63;;;4.28;;
21613;SDS011;10969;49.550;25.564;2022-08-30T02:08:41;7.15;;;4.50;;
21613;SDS011;10969;49.550;25.564;2022-08-30T02:11:09;8.80;;;3.72;;
21613;SDS011;10969;49.550;25.564;2022-08-30T02:13:35;7.93;;;5.72;;
21613;SDS011;10969;49.550;25.564;2022-08-30T02:16:02;6.38;;;4.40;;
21613;SDS011;10969;49.550;25.564;2022-08-30T02:18:28;9.07;;;4.18;;
21613;SDS011;10969;49.550;25.564;2022-08-30T02:20:56;9.07;;;6.15;;
21613;SDS011;10969;49.550;25.564;2022-08-30T02:23:22;7.13;;;4.60;;
21613;SDS011;10969;49.550;25.564;2022-08-30T02:25:48;8.18;;;5.50;;
21613;SDS011;10969;49.550;25.564;2022-08-30T02:28:14;8.77;;;4.72;;
21613;SDS011;10969;49.550;25.564;2022-08-30T02:30:40;10.05;;;5.50;;
21613;SDS011;10969;49.550;25.564;2022-08-30T02:33:06;10.10;;;5.07;;
21613;SDS011;10969;49.550;25.564;2022-08-30T02:35:32;8.13;;;5.13;;
21613;SDS011;10969;49.550;25.564;2022-08-30T02:37:58;7.72;;;5.05;;
21613;SDS011;10969;49.550;25.564;2022-08-30T02:40:24;6.47;;;4.45;;
21613;SDS011;10969;49.550;25.564;2022-08-30T02:42:50;8.70;;;5.13;;
21613;SDS011;10969;49.550;25.564;2022-08-30T02:45:17;15.15;;;6.22;;
21613;SDS011;10969;49.550;25.564;2022-08-30T02:47:43;8.75;;;5.32;;
21613;SDS011;10969;49.550;25.564;2022-08-30T02:50:09;15.15;;;4.65;;
21613;SDS011;10969;49.550;25.564;2022-08-30T02:52:36;8.40;;;4.68;;
21613;SDS011;10969;49.550;25.564;2022-08-30T02:55:03;8.80;;;4.88;;
21613;SDS011;10969;49.550;25.564;2022-08-30T02:57:30;13.90;;;5.40;;
21613;SDS011;10969;49.550;25.564;2022-08-30T02:59:56;8.07;;;5.13;;
21613;SDS011;10969;49.550;25.564;2022-08-30T03:02:23;9.82;;;5.65;;
21613;SDS011;10969;49.550;25.564;2022-08-30T03:04:49;10.95;;;5.43;;
21613;SDS011;10969;49.550;25.564;2022-08-30T03:07:15;8.30;;;4.88;;
21613;SDS011;10969;49.550;25.564;2022-08-30T03:09:41;8.63;;;5.05;;
21613;SDS011;10969;49.550;25.564;2022-08-30T03:12:07;6.75;;;4.05;;
21613;SDS011;10969;49.550;25.564;2022-08-30T03:14:34;5.20;;;3.83;;
21613;SDS011;10969;49.550;25.564;2022-08-30T03:17:01;6.15;;;4.35;;
21613;SDS011;10969;49.550;25.564;2022-08-30T03:19:29;9.15;;;5.57;;
21613;SDS011;10969;49.550;25.564;2022-08-30T03:21:55;7.90;;;5.68;;
21613;SDS011;10969;49.550;25.564;2022-08-30T03:24:21;6.68;;;4.97;;
21613;SDS011;10969;49.550;25.564;2022-08-30T03:26:47;7.00;;;4.95;;
21613;SDS011;10969;49.550;25.564;2022-08-30T03:29:13;6.38;;;5.22;;
21613;SDS011;10969;49.550;25.564;2022-08-30T03:31:39;9.07;;;5.10;;
21613;SDS011;10969;49.550;25.564;2022-08-30T03:34:05;16.23;;;5.10;;
21613;SDS011;10969;49.550;25.564;2022-08-30T03:36:34;7.38;;;4.20;;
21613;SDS011;10969;49.550;25.564;2022-08-30T03:39:00;10.30;;;6.70;;
21613;SDS011;10969;49.550;25.564;2022-08-30T03:41:26;9.38;;;4.20;;
21613;SDS011;10969;49.550;25.564;2022-08-30T03:43:52;9.75;;;5.10;;
21613;SDS011;10969;49.550;25.564;2022-08-30T03:46:19;9.75;;;5.95;;
21613;SDS011;10969;49.550;25.564;2022-08-30T03:48:44;9.38;;;5.40;;
21613;SDS011;10969;49.550;25.564;2022-08-30T03:51:11;10.20;;;5.60;;
21613;SDS011;10969;49.550;25.564;2022-08-30T03:53:37;10.35;;;5.38;;
21613;SDS011;10969;49.550;25.564;2022-08-30T03:56:03;9.48;;;5.63;;
21613;SDS011;10969;49.550;25.564;2022-08-30T03:58:29;9.23;;;4.97;;
21613;SDS011;10969;49.550;25.564;2022-08-30T04:00:55;11.18;;;6.43;;
21613;SDS011;10969;49.550;25.564;2022-08-30T04:03:21;10.45;;;4.75;;
21613;SDS011;10969;49.550;25.564;2022-08-30T04:05:50;11.82;;;5.63;;
21613;SDS011;10969;49.550;25.564;2022-08-30T04:08:16;8.95;;;5.03;;
21613;SDS011;10969;49.550;25.564;2022-08-30T04:10:42;12.75;;;5.95;;
21613;SDS011;10969;49.550;25.564;2022-08-30T04:13:08;9.88;;;4.57;;
21613;SDS011;10969;49.550;25.564;2022-08-30T04:15:34;5.82;;;4.85;;
21613;SDS011;10969;49.550;25.564;2022-08-30T04:18:00;7.75;;;5.00;;
21613;SDS011;10969;49.550;25.564;2022-08-30T04:20:26;7.63;;;4.03;;
21613;SDS011;10969;49.550;25.564;2022-08-30T04:22:52;7.43;;;4.13;;
21613;SDS011;10969;49.550;25.564;2022-08-30T04:25:18;5.40;;;3.67;;
21613;SDS011;10969;49.550;25.564;2022-08-30T04:27:44;6.47;;;4.63;;
21613;SDS011;10969;49.550;25.564;2022-08-30T04:30:11;6.80;;;4.40;;
21613;SDS011;10969;49.550;25.564;2022-08-30T04:32:37;7.13;;;3.45;;
21613;SDS011;10969;49.550;25.564;2022-08-30T04:35:03;4.93;;;3.10;;
21613;SDS011;10969;49.550;25.564;2022-08-30T04:37:30;4.13;;;3.38;;
21613;SDS011;10969;49.550;25.564;2022-08-30T04:39:56;4.80;;;3.05;;
21613;SDS011;10969;49.550;25.564;2022-08-30T04:42:24;4.20;;;3.13;;
21613;SDS011;10969;49.550;25.564;2022-08-30T04:44:52;4.57;;;2.90;;
21613;SDS011;10969;49.550;25.564;2022-08-30T04:47:18;5.30;;;3.47;;
21613;SDS011;10969;49.550;25.564;2022-08-30T04:49:44;5.40;;;2.97;;
21613;SDS011;10969;49.550;25.564;2022-08-30T04:52:10;7.55;;;4.70;;
21613;SDS011;10969;49.550;25.564;2022-08-30T04:54:36;4.65;;;3.08;;
21613;SDS011;10969;49.550;25.564;2022-08-30T04:57:02;5.85;;;2.97;;
21613;SDS011;10969;49.550;25.564;2022-08-30T04:59:29;10.57;;;3.53;;
21613;SDS011;10969;49.550;25.564;2022-08-30T05:01:55;6.43;;;3.33;;
21613;SDS011;10969;49.550;25.564;2022-08-30T05:04:21;6.30;;;3.17;;
21613;SDS011;10969;49.550;25.564;2022-08-30T05:06:47;3.97;;;3.15;;
21613;SDS011;10969;49.550;25.564;2022-08-30T05:09:13;10.18;;;3.70;;
21613;SDS011;10969;49.550;25.564;2022-08-30T05:11:39;3.72;;;2.92;;
21613;SDS011;10969;49.550;25.564;2022-08-30T05:14:07;2.92;;;2.00;;
21613;SDS011;10969;49.550;25.564;2022-08-30T05:16:33;3.35;;;2.20;;
21613;SDS011;10969;49.550;25.564;2022-08-30T05:18:59;6.07;;;2.35;;
21613;SDS011;10969;49.550;25.564;2022-08-30T05:21:26;2.75;;;2.03;;
21613;SDS011;10969;49.550;25.564;2022-08-30T05:23:53;6.03;;;2.60;;
21613;SDS011;10969;49.550;25.564;2022-08-30T05:26:21;2.45;;;2.00;;
21613;SDS011;10969;49.550;25.564;2022-08-30T05:28:47;4.10;;;1.95;;
21613;SDS011;10969;49.550;25.564;2022-08-30T05:31:18;4.85;;;2.22;;
21613;SDS011;10969;49.550;25.564;2022-08-30T05:33:44;3.20;;;2.80;;
21613;SDS011;10969;49.550;25.564;2022-08-30T05:36:11;3.17;;;2.60;;
21613;SDS011;10969;49.550;25.564;2022-08-30T05:38:38;3.75;;;2.53;;
21613;SDS011;10969;49.550;25.564;2022-08-30T05:41:04;3.33;;;2.33;;
21613;SDS011;10969;49.550;25.564;2022-08-30T05:43:30;3.10;;;2.08;;
21613;SDS011;10969;49.550;25.564;2022-08-30T05:46:00;3.40;;;1.98;;
21613;SDS011;10969;49.550;25.564;2022-08-30T05:48:27;4.53;;;2.63;;
21613;SDS011;10969;49.550;25.564;2022-08-30T05:51:06;4.20;;;2.03;;
21613;SDS011;10969;49.550;25.564;2022-08-30T05:53:33;3.28;;;1.58;;
21613;SDS011;10969;49.550;25.564;2022-08-30T05:56:00;4.32;;;2.30;;
21613;SDS011;10969;49.550;25.564;2022-08-30T05:58:26;2.75;;;2.00;;
21613;SDS011;10969;49.550;25.564;2022-08-30T06:00:52;2.92;;;1.98;;
21613;SDS011;10969;49.550;25.564;2022-08-30T06:03:18;4.25;;;2.58;;
21613;SDS011;10969;49.550;25.564;2022-08-30T06:05:44;2.65;;;2.10;;
21613;SDS011;10969;49.550;25.564;2022-08-30T06:08:10;3.08;;;1.83;;
21613;SDS011;10969;49.550;25.564;2022-08-30T06:10:36;3.53;;;1.75;;
21613;SDS011;10969;49.550;25.564;2022-08-30T06:13:02;2.67;;;2.08;;
21613;SDS011;10969;49.550;25.564;2022-08-30T06:15:28;2.08;;;1.67;;
21613;SDS011;10969;49.550;25.564;2022-08-30T06:17:54;3.80;;;2.22;;
21613;SDS011;10969;49.550;25.564;2022-08-30T06:20:20;2.03;;;1.65;;
21613;SDS011;10969;49.550;25.564;2022-08-30T06:22:47;1.73;;;1.35;;
21613;SDS011;10969;49.550;25.564;2022-08-30T06:25:13;5.35;;;1.73;;
21613;SDS011;10969;49.550;25.564;2022-08-30T06:27:40;2.47;;;1.98;;
21613;SDS011;10969;49.550;25.564;2022-08-30T06:30:06;8.88;;;1.70;;
21613;SDS011;10969;49.550;25.564;2022-08-30T06:32:34;3.22;;;1.88;;
21613;SDS011;10969;49.550;25.564;2022-08-30T06:35:00;3.42;;;2.25;;
21613;SDS011;10969;49.550;25.564;2022-08-30T06:37:26;5.60;;;1.70;;
21613;SDS011;10969;49.550;25.564;2022-08-30T06:39:52;1.83;;;1.60;;
21613;SDS011;10969;49.550;25.564;2022-08-30T06:42:20;3.28;;;2.42;;
21613;SDS011;10969;49.550;25.564;2022-08-30T06:44:46;2.10;;;1.13;;
21613;SDS011;10969;49.550;25.564;2022-08-30T06:47:12;1.92;;;1.80;;
21613;SDS011;10969;49.550;25.564;2022-08-30T06:49:38;1.60;;;1.50;;
21613;SDS011;10969;49.550;25.564;2022-08-30T06:52:04;3.20;;;1.73;;
21613;SDS011;10969;49.550;25.564;2022-08-30T06:54:30;3.55;;;2.30;;
21613;SDS011;10969;49.550;25.564;2022-08-30T06:56:56;1.77;;;1.33;;
21613;SDS011;10969;49.550;25.564;2022-08-30T06:59:22;4.88;;;1.55;;
21613;SDS011;10969;49.550;25.564;2022-08-30T07:01:48;2.53;;;1.30;;
21613;SDS011;10969;49.550;25.564;2022-08-30T07:04:14;1.65;;;1.35;;
21613;SDS011;10969;49.550;25.564;2022-08-30T07:06:41;2.92;;;1.85;;
21613;SDS011;10969;49.550;25.564;2022-08-30T07:09:07;1.63;;;0.90;;
21613;SDS011;10969;49.550;25.564;2022-08-30T07:11:33;2.85;;;1.55;;
21613;SDS011;10969;49.550;25.564;2022-08-30T07:14:00;1.83;;;1.50;;
21613;SDS011;10969;49.550;25.564;2022-08-30T07:16:26;2.70;;;1.50;;
21613;SDS011;10969;49.550;25.564;2022-08-30T07:18:53;3.30;;;1.77;;
21613;SDS011;10969;49.550;25.564;2022-08-30T07:21:21;2.53;;;2.03;;
21613;SDS011;10969;49.550;25.564;2022-08-30T07:23:48;1.55;;;1.20;;
21613;SDS011;10969;49.550;25.564;2022-08-30T07:26:15;1.98;;;1.58;;
21613;SDS011;10969;49.550;25.564;2022-08-30T07:28:42;1.33;;;1.23;;
21613;SDS011;10969;49.550;25.564;2022-08-30T07:31:09;2.28;;;1.38;;
21613;SDS011;10969;49.550;25.564;2022-08-30T07:33:36;1.65;;;1.15;;
21613;SDS011;10969;49.550;25.564;2022-08-30T07:36:04;1.20;;;1.05;;
21613;SDS011;10969;49.550;25.564;2022-08-30T07:38:32;1.25;;;1.15;;
21613;SDS011;10969;49.550;25.564;2022-08-30T07:40:58;3.05;;;1.38;;
21613;SDS011;10969;49.550;25.564;2022-08-30T07:43:26;4.10;;;1.13;;
21613;SDS011;10969;49.550;25.564;2022-08-30T07:45:53;1.58;;;1.10;;
21613;SDS011;10969;49.550;25.564;2022-08-30T07:48:19;1.67;;;1.45;;
21613;SDS011;10969;49.550;25.564;2022-08-30T07:50:46;1.98;;;1.10;;
21613;SDS011;10969;49.550;25.564;2022-08-30T07:53:12;1.63;;;1.23;;
21613;SDS011;10969;49.550;25.564;2022-08-30T07:55:38;1.08;;;1.08;;
21613;SDS011;10969;49.550;25.564;2022-08-30T07:58:06;0.60;;;0.60;;
21613;SDS011;10969;49.550;25.564;2022-08-30T08:00:32;3.55;;;1.23;;
21613;SDS011;10969;49.550;25.564;2022-08-30T08:03:03;1.35;;;0.82;;
21613;SDS011;10969;49.550;25.564;2022-08-30T08:07:55;1.20;;;1.10;;
21613;SDS011;10969;49.550;25.564;2022-08-30T08:10:21;1.52;;;1.15;;
21613;SDS011;10969;49.550;25.564;2022-08-30T08:12:47;3.58;;;1.70;;
21613;SDS011;10969;49.550;25.564;2022-08-30T08:15:13;1.45;;;1.35;;
21613;SDS011;10969;49.550;25.564;2022-08-30T08:17:39;3.65;;;1.58;;
21613;SDS011;10969;49.550;25.564;2022-08-30T08:20:05;0.90;;;0.85;;
21613;SDS011;10969;49.550;25.564;2022-08-30T08:22:31;1.60;;;1.13;;
21613;SDS011;10969;49.550;25.564;2022-08-30T08:24:57;1.42;;;1.27;;
21613;SDS011;10969;49.550;25.564;2022-08-30T08:27:23;1.17;;;1.02;;
21613;SDS011;10969;49.550;25.564;2022-08-30T08:29:49;1.00;;;1.00;;
21613;SDS011;10969;49.550;25.564;2022-08-30T08:32:15;0.95;;;0.93;;
21613;SDS011;10969;49.550;25.564;2022-08-30T08:34:41;0.80;;;0.80;;
21613;SDS011;10969;49.550;25.564;2022-08-30T08:37:08;1.60;;;1.15;;
21613;SDS011;10969;49.550;25.564;2022-08-30T08:39:34;1.23;;;1.13;;
21613;SDS011;10969;49.550;25.564;2022-08-30T08:47:10;0.80;;;0.80;;
21613;SDS011;10969;49.550;25.564;2022-08-30T08:49:37;0.70;;;0.70;;
21613;SDS011;10969;49.550;25.564;2022-08-30T08:52:07;4.05;;;0.85;;
21613;SDS011;10969;49.550;25.564;2022-08-30T08:55:00;2.90;;;0.93;;
21613;SDS011;10969;49.550;25.564;2022-08-30T08:57:29;2.15;;;1.30;;
21613;SDS011;10969;49.550;25.564;2022-08-30T08:59:56;2.15;;;0.80;;
21613;SDS011;10969;49.550;25.564;2022-08-30T09:02:27;1.73;;;0.93;;
21613;SDS011;10969;49.550;25.564;2022-08-30T09:04:55;1.75;;;1.35;;
21613;SDS011;10969;49.550;25.564;2022-08-30T09:07:23;0.93;;;0.93;;
21613;SDS011;10969;49.550;25.564;2022-08-30T09:09:51;0.85;;;0.85;;
21613;SDS011;10969;49.550;25.564;2022-08-30T09:12:17;1.70;;;1.02;;
21613;SDS011;10969;49.550;25.564;2022-08-30T09:14:44;5.25;;;1.20;;
21613;SDS011;10969;49.550;25.564;2022-08-30T09:17:11;0.90;;;0.90;;
21613;SDS011;10969;49.550;25.564;2022-08-30T09:19:42;1.60;;;1.20;;
21613;SDS011;10969;49.550;25.564;2022-08-30T09:24:45;0.85;;;0.80;;
21613;SDS011;10969;49.550;25.564;2022-08-30T09:27:20;1.20;;;0.98;;
21613;SDS011;10969;49.550;25.564;2022-08-30T09:32:26;0.80;;;0.80;;
21613;SDS011;10969;49.550;25.564;2022-08-30T09:34:53;0.50;;;0.50;;
21613;SDS011;10969;49.550;25.564;2022-08-30T09:38:02;0.95;;;0.93;;
21613;SDS011;10969;49.550;25.564;2022-08-30T09:40:09;7.72;;;0.95;;
21613;SDS011;10969;49.550;25.564;2022-08-30T09:42:36;1.13;;;1.02;;
21613;SDS011;10969;49.550;25.564;2022-08-30T09:45:03;1.40;;;1.13;;
21613;SDS011;10969;49.550;25.564;2022-08-30T09:47:40;3.42;;;1.00;;
21613;SDS011;10969;49.550;25.564;2022-08-30T09:50:12;2.15;;;1.02;;
21613;SDS011;10969;49.550;25.564;2022-08-30T09:55:13;1.23;;;0.83;;
21613;SDS011;10969;49.550;25.564;2022-08-30T10:00:20;2.03;;;1.00;;
21613;SDS011;10969;49.550;25.564;2022-08-30T10:07:48;0.80;;;0.80;;
21613;SDS011;10969;49.550;25.564;2022-08-30T10:10:23;1.00;;;0.77;;
21613;SDS011;10969;49.550;25.564;2022-08-30T10:15:47;0.52;;;0.52;;
21613;SDS011;10969;49.550;25.564;2022-08-30T10:18:20;0.80;;;0.80;;
21613;SDS011;10969;49.550;25.564;2022-08-30T10:23:18;0.70;;;0.70;;
21613;SDS011;10969;49.550;25.564;2022-08-30T10:30:43;0.70;;;0.70;;
21613;SDS011;10969;49.550;25.564;2022-08-30T10:33:14;1.63;;;1.15;;
21613;SDS011;10969;49.550;25.564;2022-08-30T10:36:00;0.80;;;0.60;;
21613;SDS011;10969;49.550;25.564;2022-08-30T10:38:48;1.67;;;0.90;;
21613;SDS011;10969;49.550;25.564;2022-08-30T10:46:17;1.30;;;1.00;;
21613;SDS011;10969;49.550;25.564;2022-08-30T10:48:44;1.77;;;0.55;;
21613;SDS011;10969;49.550;25.564;2022-08-30T10:51:32;0.70;;;0.70;;
21613;SDS011;10969;49.550;25.564;2022-08-30T10:54:07;0.77;;;0.70;;
21613;SDS011;10969;49.550;25.564;2022-08-30T10:56:34;1.25;;;0.75;;
21613;SDS011;10969;49.550;25.564;2022-08-30T10:59:03;0.80;;;0.80;;
21613;SDS011;10969;49.550;25.564;2022-08-30T11:12:05;1.95;;;0.88;;
21613;SDS011;10969;49.550;25.564;2022-08-30T11:14:38;1.20;;;1.00;;
21613;SDS011;10969;49.550;25.564;2022-08-30T11:17:04;0.82;;;0.82;;
21613;SDS011;10969;49.550;25.564;2022-08-30T11:19:38;3.50;;;0.88;;
21613;SDS011;10969;49.550;25.564;2022-08-30T11:27:38;0.95;;;0.60;;
21613;SDS011;10969;49.550;25.564;2022-08-30T11:35:38;1.13;;;0.90;;
21613;SDS011;10969;49.550;25.564;2022-08-30T11:38:12;0.77;;;0.77;;
21613;SDS011;10969;49.550;25.564;2022-08-30T11:40:42;0.98;;;0.90;;
21613;SDS011;10969;49.550;25.564;2022-08-30T11:45:51;1.05;;;0.80;;
21613;SDS011;10969;49.550;25.564;2022-08-30T12:01:54;0.93;;;0.60;;
21613;SDS011;10969;49.550;25.564;2022-08-30T12:06:56;0.82;;;0.82;;
21613;SDS011;10969;49.550;25.564;2022-08-30T12:12:02;0.90;;;0.90;;
21613;SDS011;10969;49.550;25.564;2022-08-30T12:14:39;3.33;;;1.25;;
21613;SDS011;10969;49.550;25.564;2022-08-30T12:17:11;0.80;;;0.80;;
21613;SDS011;10969;49.550;25.564;2022-08-30T12:19:56;1.70;;;0.90;;
21613;SDS011;10969;49.550;25.564;2022-08-30T12:22:23;1.17;;;0.80;;
21613;SDS011;10969;49.550;25.564;2022-08-30T12:24:51;1.08;;;0.88;;
21613;SDS011;10969;49.550;25.564;2022-08-30T12:27:26;0.68;;;0.68;;
21613;SDS011;10969;49.550;25.564;2022-08-30T12:29:53;0.65;;;0.60;;
21613;SDS011;10969;49.550;25.564;2022-08-30T12:32:20;0.65;;;0.65;;
21613;SDS011;10969;49.550;25.564;2022-08-30T12:34:56;1.13;;;0.90;;
21613;SDS011;10969;49.550;25.564;2022-08-30T12:37:25;0.75;;;0.75;;
21613;SDS011;10969;49.550;25.564;2022-08-30T12:42:34;1.13;;;0.80;;
21613;SDS011;10969;49.550;25.564;2022-08-30T12:45:02;3.85;;;0.90;;
21613;SDS011;10969;49.550;25.564;2022-08-30T12:49:58;1.63;;;0.85;;
21613;SDS011;10969;49.550;25.564;2022-08-30T12:54:53;1.13;;;1.05;;
21613;SDS011;10969;49.550;25.564;2022-08-30T12:57:41;1.30;;;1.20;;
21613;SDS011;10969;49.550;25.564;2022-08-30T13:00:07;1.42;;;0.88;;
21613;SDS011;10969;49.550;25.564;2022-08-30T13:07:50;3.63;;;0.70;;
21613;SDS011;10969;49.550;25.564;2022-08-30T13:10:16;0.93;;;0.88;;
21613;SDS011;10969;49.550;25.564;2022-08-30T13:13:05;1.02;;;1.00;;
21613;SDS011;10969;49.550;25.564;2022-08-30T13:15:33;2.35;;;1.02;;
21613;SDS011;10969;49.550;25.564;2022-08-30T13:18:23;0.95;;;0.90;;
21613;SDS011;10969;49.550;25.564;2022-08-30T13:20:51;1.95;;;1.13;;
21613;SDS011;10969;49.550;25.564;2022-08-30T13:23:33;0.65;;;0.65;;
21613;SDS011;10969;49.550;25.564;2022-08-30T13:25:59;0.95;;;0.75;;
21613;SDS011;10969;49.550;25.564;2022-08-30T13:28:26;1.35;;;1.10;;
21613;SDS011;10969;49.550;25.564;2022-08-30T13:30:53;2.53;;;1.67;;
21613;SDS011;10969;49.550;25.564;2022-08-30T13:33:19;0.90;;;0.82;;
21613;SDS011;10969;49.550;25.564;2022-08-30T13:35:45;1.15;;;1.00;;
21613;SDS011;10969;49.550;25.564;2022-08-30T13:38:11;1.65;;;1.15;;
21613;SDS011;10969;49.550;25.564;2022-08-30T13:40:37;0.63;;;0.60;;
21613;SDS011;10969;49.550;25.564;2022-08-30T13:43:03;1.38;;;0.90;;
21613;SDS011;10969;49.550;25.564;2022-08-30T13:45:29;1.83;;;1.27;;
21613;SDS011;10969;49.550;25.564;2022-08-30T13:47:55;1.00;;;0.80;;
21613;SDS011;10969;49.550;25.564;2022-08-30T13:50:21;0.90;;;0.80;;
21613;SDS011;10969;49.550;25.564;2022-08-30T13:52:47;1.40;;;0.90;;
21613;SDS011;10969;49.550;25.564;2022-08-30T13:55:13;0.88;;;0.88;;
21613;SDS011;10969;49.550;25.564;2022-08-30T13:57:39;2.80;;;1.13;;
21613;SDS011;10969;49.550;25.564;2022-08-30T14:00:06;1.58;;;1.48;;
21613;SDS011;10969;49.550;25.564;2022-08-30T14:02:34;0.60;;;0.60;;
21613;SDS011;10969;49.550;25.564;2022-08-30T14:05:00;1.00;;;0.88;;
21613;SDS011;10969;49.550;25.564;2022-08-30T14:07:26;0.43;;;0.43;;
21613;SDS011;10969;49.550;25.564;2022-08-30T14:09:52;2.38;;;0.70;;
21613;SDS011;10969;49.550;25.564;2022-08-30T14:12:18;1.00;;;0.90;;
21613;SDS011;10969;49.550;25.564;2022-08-30T14:14:44;0.88;;;0.88;;
21613;SDS011;10969;49.550;25.564;2022-08-30T14:17:10;1.00;;;1.00;;
21613;SDS011;10969;49.550;25.564;2022-08-30T14:19:36;1.83;;;0.95;;
21613;SDS011;10969;49.550;25.564;2022-08-30T14:22:02;3.22;;;0.95;;
21613;SDS011;10969;49.550;25.564;2022-08-30T14:24:28;0.75;;;0.75;;
21613;SDS011;10969;49.550;25.564;2022-08-30T14:26:54;1.30;;;0.90;;
21613;SDS011;10969;49.550;25.564;2022-08-30T14:29:21;2.22;;;1.13;;
21613;SDS011;10969;49.550;25.564;2022-08-30T14:31:49;1.00;;;0.90;;
21613;SDS011;10969;49.550;25.564;2022-08-30T14:34:16;2.20;;;1.63;;
21613;SDS011;10969;49.550;25.564;2022-08-30T14:36:42;1.17;;;0.63;;
21613;SDS011;10969;49.550;25.564;2022-08-30T14:39:10;2.92;;;0.80;;
21613;SDS011;10969;49.550;25.564;2022-08-30T14:41:42;0.60;;;0.60;;
21613;SDS011;10969;49.550;25.564;2022-08-30T14:44:08;1.77;;;0.87;;
21613;SDS011;10969;49.550;25.564;2022-08-30T14:46:34;1.70;;;1.40;;
21613;SDS011;10969;49.550;25.564;2022-08-30T14:49:00;1.05;;;0.88;;
21613;SDS011;10969;49.550;25.564;2022-08-30T14:51:26;2.85;;;1.02;;
21613;SDS011;10969;49.550;25.564;2022-08-30T14:53:52;1.25;;;0.93;;
21613;SDS011;10969;49.550;25.564;2022-08-30T14:56:19;0.80;;;0.80;;
21613;SDS011;10969;49.550;25.564;2022-08-30T14:58:49;1.25;;;0.80;;
21613;SDS011;10969;49.550;25.564;2022-08-30T15:01:16;2.53;;;1.58;;
21613;SDS011;10969;49.550;25.564;2022-08-30T15:03:42;1.02;;;0.90;;
21613;SDS011;10969;49.550;25.564;2022-08-30T15:06:08;1.92;;;1.30;;
21613;SDS011;10969;49.550;25.564;2022-08-30T15:08:35;1.75;;;1.05;;
21613;SDS011;10969;49.550;25.564;2022-08-30T15:11:05;0.80;;;0.80;;
21613;SDS011;10969;49.550;25.564;2022-08-30T15:13:31;2.05;;;1.02;;
21613;SDS011;10969;49.550;25.564;2022-08-30T15:15:57;1.30;;;0.93;;
21613;SDS011;10969;49.550;25.564;2022-08-30T15:18:23;2.72;;;1.45;;
21613;SDS011;10969;49.550;25.564;2022-08-30T15:20:49;1.60;;;0.80;;
21613;SDS011;10969;49.550;25.564;2022-08-30T15:23:15;0.70;;;0.70;;
21613;SDS011;10969;49.550;25.564;2022-08-30T15:25:41;0.80;;;0.73;;
21613;SDS011;10969;49.550;25.564;2022-08-30T15:28:07;1.27;;;0.88;;
21613;SDS011;10969;49.550;25.564;2022-08-30T15:30:34;0.70;;;0.70;;
21613;SDS011;10969;49.550;25.564;2022-08-30T15:33:00;2.83;;;0.90;;
21613;SDS011;10969;49.550;25.564;2022-08-30T15:35:26;0.70;;;0.70;;
21613;SDS011;10969;49.550;25.564;2022-08-30T15:37:52;0.80;;;0.80;;
21613;SDS011;10969;49.550;25.564;2022-08-30T15:40:18;1.88;;;0.82;;
21613;SDS011;10969;49.550;25.564;2022-08-30T15:42:44;0.77;;;0.77;;
21613;SDS011;10969;49.550;25.564;2022-08-30T15:45:11;1.30;;;0.88;;
21613;SDS011;10969;49.550;25.564;2022-08-30T15:47:37;3.35;;;1.10;;
21613;SDS011;10969;49.550;25.564;2022-08-30T15:50:04;1.10;;;0.82;;
21613;SDS011;10969;49.550;25.564;2022-08-30T15:52:30;1.02;;;0.95;;
21613;SDS011;10969;49.550;25.564;2022-08-30T15:54:57;1.40;;;1.30;;
21613;SDS011;10969;49.550;25.564;2022-08-30T15:57:23;2.00;;;1.08;;
21613;SDS011;10969;49.550;25.564;2022-08-30T15:59:50;0.80;;;0.80;;
21613;SDS011;10969;49.550;25.564;2022-08-30T16:02:18;3.45;;;1.98;;
21613;SDS011;10969;49.550;25.564;2022-08-30T16:04:44;1.52;;;1.02;;
21613;SDS011;10969;49.550;25.564;2022-08-30T16:07:10;1.33;;;1.23;;
21613;SDS011;10969;49.550;25.564;2022-08-30T16:09:36;1.30;;;1.20;;
21613;SDS011;10969;49.550;25.564;2022-08-30T16:12:03;1.48;;;0.93;;
21613;SDS011;10969;49.550;25.564;2022-08-30T16:14:29;0.80;;;0.80;;